Terminal Aerodrome Forecast
Issued by NWS

Home | Current Version | Previous Version | Text Only | Print | Product List | Glossary Off
Versions: 1 2 3 4 5 6 7 8 9 10 11 12 13 14 15 16 17 18

000
FTUS43 KGRB 291026 AAA
TAFRHI
TAF AMD
KRHI 291026Z 2910/3006 22007KT P6SM BKN008 BKN050
      TEMPO 2912/2914 4SM -SHRA BR BKN014
     FM291400 22005KT 5SM -SHRA OVC010
     FM291700 23005KT P6SM -SHRA SCT018 OVC030
     FM292100 26009KT P6SM VCSH BKN035
     FM300000 29007KT P6SM SCT045
     FM300200 28005KT P6SM SCT150=

USA.gov is the U.S. government's official web portal to all federal, state and local government web resources and services.